createdAt,value
2018-10-09T00:01:09.029Z,8.93
2018-10-09T00:03:43.641Z,8.53
2018-10-09T00:06:18.367Z,9.10
2018-10-09T00:08:52.905Z,10.47
2018-10-09T00:11:27.696Z,11.00
2018-10-09T00:14:03.068Z,9.67
2018-10-09T00:16:37.610Z,10.57
2018-10-09T00:19:12.401Z,9.60
2018-10-09T00:21:47.361Z,10.23
2018-10-09T00:24:22.254Z,9.67
2018-10-09T00:26:56.726Z,10.60
2018-10-09T00:29:31.864Z,11.00
2018-10-09T00:32:07.110Z,11.67
2018-10-09T00:34:42.123Z,12.43
2018-10-09T00:37:16.812Z,9.30
2018-10-09T00:39:51.933Z,11.07
2018-10-09T00:42:27.137Z,13.60
2018-10-09T00:45:01.674Z,8.77
2018-10-09T00:47:36.948Z,9.90
2018-10-09T00:50:12.460Z,11.50
2018-10-09T00:52:47.751Z,10.43
2018-10-09T00:55:22.276Z,12.57
2018-10-09T00:57:56.950Z,10.00
2018-10-09T01:00:31.759Z,10.07
2018-10-09T01:03:06.819Z,12.43
2018-10-09T01:05:41.785Z,9.13
2018-10-09T01:08:16.521Z,11.70
2018-10-09T01:10:51.459Z,10.57
2018-10-09T01:13:26.081Z,11.83
2018-10-09T01:16:01.176Z,11.37
2018-10-09T01:18:36.425Z,10.83
2018-10-09T01:21:11.557Z,10.80
2018-10-09T01:23:46.276Z,12.03
2018-10-09T01:26:20.706Z,11.00
2018-10-09T01:28:55.627Z,10.93
2018-10-09T01:31:30.606Z,10.47
2018-10-09T01:34:05.394Z,9.13
2018-10-09T01:36:40.328Z,10.33
2018-10-09T01:39:14.724Z,10.63
2018-10-09T01:41:49.222Z,10.90
2018-10-09T01:44:23.855Z,11.80
2018-10-09T01:46:58.584Z,10.53
2018-10-09T01:49:34.230Z,11.07
2018-10-09T01:52:08.920Z,10.67
2018-10-09T01:54:43.495Z,11.20
2018-10-09T01:57:18.253Z,11.37
2018-10-09T01:59:53.290Z,11.47
2018-10-09T02:02:32.119Z,11.20
2018-10-09T02:05:06.761Z,10.70
2018-10-09T02:07:41.109Z,12.37
2018-10-09T02:10:15.635Z,11.07
2018-10-09T02:12:50.493Z,13.07
2018-10-09T02:15:25.284Z,10.67
2018-10-09T02:18:00.114Z,10.57
2018-10-09T02:20:34.986Z,11.03
2018-10-09T02:23:09.336Z,10.37
2018-10-09T02:25:43.833Z,10.67
2018-10-09T02:28:18.458Z,12.33
2018-10-09T02:30:53.099Z,12.83
2018-10-09T02:33:27.895Z,10.23
2018-10-09T02:36:03.000Z,12.43
2018-10-09T02:38:37.465Z,38.23
2018-10-09T02:41:11.785Z,20.07
2018-10-09T02:43:46.347Z,10.13
2018-10-09T02:46:21.115Z,11.50
2018-10-09T02:48:55.752Z,10.27
2018-10-09T02:51:30.375Z,9.63
2018-10-09T02:54:05.247Z,14.63
2018-10-09T02:56:39.827Z,12.67
2018-10-09T02:59:14.743Z,12.83
2018-10-09T03:01:49.151Z,12.37
2018-10-09T03:04:23.812Z,9.67
2018-10-09T03:06:58.445Z,12.87
2018-10-09T03:09:33.072Z,11.83
2018-10-09T03:12:08.162Z,11.83
2018-10-09T03:14:43.046Z,12.67
2018-10-09T03:17:17.472Z,8.90
2018-10-09T03:19:52.334Z,10.67
2018-10-09T03:22:27.412Z,13.80
2018-10-09T03:25:02.360Z,14.43
2018-10-09T03:27:37.014Z,12.80
2018-10-09T03:30:12.479Z,8.80
2018-10-09T03:32:46.788Z,9.23
2018-10-09T03:35:28.146Z,13.53
2018-10-09T03:38:02.725Z,12.00
2018-10-09T03:40:37.359Z,11.10
2018-10-09T03:43:12.269Z,9.17
2018-10-09T03:45:46.825Z,10.87
2018-10-09T03:48:21.933Z,11.83
2018-10-09T03:50:56.773Z,13.00
2018-10-09T03:53:31.278Z,13.03
2018-10-09T03:56:06.159Z,10.73
2018-10-09T03:58:41.072Z,10.87
2018-10-09T04:01:15.615Z,11.70
2018-10-09T04:03:50.480Z,12.17
2018-10-09T04:06:25.097Z,12.97
2018-10-09T04:08:59.732Z,12.30
2018-10-09T04:11:35.060Z,14.53
2018-10-09T04:14:09.768Z,12.40
2018-10-09T04:16:45.175Z,12.37
2018-10-09T04:19:20.089Z,12.33
2018-10-09T04:21:55.102Z,14.63
2018-10-09T04:24:29.778Z,14.90
2018-10-09T04:27:05.138Z,13.20
2018-10-09T04:29:39.928Z,14.00
2018-10-09T04:32:14.789Z,12.83
2018-10-09T04:34:49.606Z,15.20
2018-10-09T04:37:24.318Z,13.63
2018-10-09T04:40:01.257Z,13.00
2018-10-09T04:42:36.462Z,11.03
2018-10-09T04:45:11.217Z,15.47
2018-10-09T04:47:45.951Z,13.70
2018-10-09T04:50:20.585Z,16.33
2018-10-09T04:52:55.607Z,13.93
2018-10-09T04:55:30.246Z,11.87
2018-10-09T04:58:05.355Z,12.90
2018-10-09T05:00:40.128Z,13.53
2018-10-09T05:03:15.094Z,16.07
2018-10-09T05:05:50.170Z,14.47
2018-10-09T05:08:24.952Z,13.60
2018-10-09T05:10:59.778Z,14.47
2018-10-09T05:13:34.370Z,14.90
2018-10-09T05:16:09.692Z,14.20
2018-10-09T05:18:44.258Z,15.93
2018-10-09T05:21:19.226Z,15.17
2018-10-09T05:23:53.996Z,16.97
2018-10-09T05:26:29.011Z,18.00
2018-10-09T05:29:03.587Z,14.77
2018-10-09T05:31:38.193Z,16.60
2018-10-09T05:34:13.191Z,16.07
2018-10-09T05:36:47.719Z,13.80
2018-10-09T05:39:22.680Z,15.90
2018-10-09T05:41:57.441Z,16.70
2018-10-09T05:44:32.512Z,19.27
2018-10-09T05:47:07.094Z,16.07
2018-10-09T05:49:42.427Z,15.40
2018-10-09T05:52:17.034Z,15.63
2018-10-09T05:54:51.502Z,15.57
2018-10-09T05:57:26.423Z,18.70
2018-10-09T06:00:02.210Z,16.27
2018-10-09T06:02:36.986Z,17.60
2018-10-09T06:05:11.706Z,20.03
2018-10-09T06:07:46.339Z,17.90
2018-10-09T06:10:20.876Z,21.13
2018-10-09T06:12:56.211Z,21.67
2018-10-09T06:15:31.808Z,21.30
2018-10-09T06:18:07.450Z,19.70
2018-10-09T06:20:41.815Z,22.73
2018-10-09T06:23:16.930Z,20.37
2018-10-09T06:25:51.357Z,25.13
2018-10-09T06:28:25.904Z,21.50
2018-10-09T06:31:02.568Z,24.47
2018-10-09T06:33:37.236Z,27.47
2018-10-09T06:36:12.011Z,31.70
2018-10-09T06:38:46.422Z,23.33
2018-10-09T06:41:20.836Z,24.47
2018-10-09T06:43:55.658Z,26.80
2018-10-09T06:46:31.587Z,30.37
2018-10-09T06:49:06.902Z,28.60
2018-10-09T06:51:41.882Z,26.43
2018-10-09T06:54:16.855Z,28.87
2018-10-09T06:56:55.080Z,31.27
2018-10-09T06:59:29.642Z,35.03
2018-10-09T07:02:05.001Z,29.30
2018-10-09T07:04:39.777Z,32.17
2018-10-09T07:07:14.398Z,28.17
2018-10-09T07:09:49.227Z,30.60
2018-10-09T07:12:23.745Z,30.67
2018-10-09T07:14:52.916Z,29.10
2018-10-09T07:17:22.602Z,33.03
2018-10-09T07:19:52.146Z,31.50
2018-10-09T07:22:22.006Z,33.87
2018-10-09T07:24:51.492Z,35.60
2018-10-09T07:27:20.903Z,32.90
2018-10-09T07:29:50.028Z,36.73
2018-10-09T07:32:18.976Z,35.53
2018-10-09T07:34:48.518Z,38.00
2018-10-09T07:37:18.305Z,35.40
2018-10-09T07:39:47.590Z,34.97
2018-10-09T07:42:16.990Z,30.13
2018-10-09T07:44:46.415Z,33.83
2018-10-09T07:47:15.926Z,35.43
2018-10-09T07:49:45.617Z,38.63
2018-10-09T07:52:15.126Z,33.83
2018-10-09T07:54:44.719Z,35.47
2018-10-09T07:57:14.553Z,36.53
2018-10-09T07:59:45.063Z,38.43
2018-10-09T08:02:14.752Z,35.83
2018-10-09T08:04:44.408Z,29.07
2018-10-09T08:07:14.093Z,33.47
2018-10-09T08:09:43.990Z,34.87
2018-10-09T08:12:13.491Z,32.17
2018-10-09T08:14:44.180Z,37.90
2018-10-09T08:17:13.330Z,33.30
2018-10-09T08:19:43.093Z,35.20
2018-10-09T08:22:12.751Z,37.63
2018-10-09T08:24:41.911Z,39.97
2018-10-09T08:27:10.971Z,34.10
2018-10-09T08:29:39.993Z,38.07
2018-10-09T08:32:09.711Z,34.97
2018-10-09T08:34:40.067Z,32.77
2018-10-09T08:37:09.431Z,35.47
2018-10-09T08:39:38.559Z,31.17
2018-10-09T08:42:08.424Z,36.73
2018-10-09T08:44:37.437Z,37.07
2018-10-09T08:47:07.641Z,31.53
2018-10-09T08:49:37.205Z,35.13
2018-10-09T08:52:07.007Z,32.50
2018-10-09T08:54:37.279Z,33.07
2018-10-09T08:57:06.892Z,42.10
2018-10-09T08:59:37.028Z,36.27
2018-10-09T09:02:07.073Z,33.37
2018-10-09T09:04:36.667Z,35.87
2018-10-09T09:07:06.801Z,31.80
2018-10-09T09:09:36.574Z,35.37
2018-10-09T09:12:06.528Z,36.17
2018-10-09T09:14:35.359Z,32.00
2018-10-09T09:17:06.091Z,33.07
2018-10-09T09:19:35.419Z,36.10
2018-10-09T09:22:04.646Z,41.50
2018-10-09T09:24:35.656Z,31.57
2018-10-09T09:27:05.913Z,34.80
2018-10-09T09:29:35.579Z,42.03
2018-10-09T09:32:06.876Z,36.60
2018-10-09T09:34:36.188Z,34.40
2018-10-09T09:37:05.780Z,37.47
2018-10-09T09:39:36.426Z,40.90
2018-10-09T09:42:06.443Z,37.37
2018-10-09T09:44:36.621Z,38.67
2018-10-09T09:47:05.928Z,34.40
2018-10-09T09:49:37.055Z,38.00
2018-10-09T09:52:06.805Z,32.50
2018-10-09T09:54:37.010Z,33.73
2018-10-09T09:57:06.337Z,38.13
2018-10-09T09:59:36.078Z,33.70
2018-10-09T10:02:06.798Z,35.47
2018-10-09T10:04:37.797Z,33.67
2018-10-09T10:07:07.538Z,30.10
2018-10-09T10:09:36.729Z,30.80
2018-10-09T10:12:07.710Z,30.83
2018-10-09T10:14:36.994Z,29.50
2018-10-09T10:17:06.478Z,28.30
2018-10-09T10:19:36.892Z,29.87
2018-10-09T10:22:06.953Z,34.93
2018-10-09T10:24:37.890Z,28.20
2018-10-09T10:27:07.411Z,27.87
2018-10-09T10:29:36.534Z,27.33
2018-10-09T10:32:06.347Z,23.53
2018-10-09T10:34:35.606Z,27.37
2018-10-09T10:37:05.388Z,24.83
2018-10-09T10:39:34.776Z,25.57
2018-10-09T10:42:05.409Z,23.90
2018-10-09T10:44:35.674Z,22.70
2018-10-09T10:47:04.720Z,24.27
2018-10-09T10:49:34.722Z,21.30
2018-10-09T10:52:04.304Z,22.10
2018-10-09T10:54:33.657Z,20.10
2018-10-09T10:57:03.800Z,22.90
2018-10-09T10:59:33.740Z,20.43
2018-10-09T11:02:03.299Z,20.80
2018-10-09T11:04:33.399Z,18.57
2018-10-09T11:07:02.539Z,22.60
2018-10-09T11:09:32.121Z,23.87
2018-10-09T11:12:01.197Z,18.53
2018-10-09T11:14:30.089Z,18.57
2018-10-09T11:16:59.934Z,15.17
2018-10-09T11:19:28.809Z,13.63
2018-10-09T11:21:58.048Z,13.90
2018-10-09T11:24:27.111Z,18.77
2018-10-09T11:26:56.571Z,15.07
2018-10-09T11:29:26.212Z,20.53
2018-10-09T11:31:55.536Z,14.60
2018-10-09T11:34:24.737Z,14.00
2018-10-09T11:36:54.148Z,13.27
2018-10-09T11:39:24.053Z,15.33
2018-10-09T11:41:53.465Z,14.37
2018-10-09T11:44:24.099Z,16.93
2018-10-09T11:46:53.647Z,13.67
2018-10-09T11:49:23.369Z,16.07
2018-10-09T11:51:52.806Z,16.70
2018-10-09T11:54:23.030Z,17.10
2018-10-09T11:56:52.443Z,13.97
2018-10-09T11:59:23.284Z,16.83
2018-10-09T12:01:52.627Z,15.37
2018-10-09T12:04:22.068Z,18.07
2018-10-09T12:06:52.054Z,11.97
2018-10-09T12:09:21.709Z,13.13
2018-10-09T12:11:51.463Z,14.17
2018-10-09T12:14:21.213Z,14.33
2018-10-09T12:16:50.798Z,12.77
2018-10-09T12:19:19.848Z,12.50
2018-10-09T12:21:49.262Z,12.37
2018-10-09T12:24:18.619Z,14.33
2018-10-09T12:26:47.689Z,16.27
2018-10-09T12:29:17.174Z,12.70
2018-10-09T12:31:46.336Z,13.60
2018-10-09T12:34:15.358Z,12.27
2018-10-09T12:36:45.208Z,12.87
2018-10-09T12:39:14.726Z,12.13
2018-10-09T12:41:44.557Z,12.00
2018-10-09T12:44:13.968Z,12.00
2018-10-09T12:46:42.979Z,9.43
2018-10-09T12:49:12.273Z,11.37
2018-10-09T12:51:41.898Z,12.13
2018-10-09T12:54:11.334Z,10.80
2018-10-09T12:56:40.512Z,14.10
2018-10-09T12:59:09.829Z,14.03
2018-10-09T13:01:39.262Z,11.47
2018-10-09T13:04:08.865Z,10.43
2018-10-09T13:06:38.029Z,13.63
2018-10-09T13:09:09.337Z,14.33
2018-10-09T13:11:38.919Z,11.47
2018-10-09T13:14:08.191Z,11.97
2018-10-09T13:16:37.443Z,11.27
2018-10-09T13:19:07.490Z,11.97
2018-10-09T13:21:37.408Z,10.93
2018-10-09T13:24:08.224Z,9.93
2018-10-09T13:26:37.901Z,12.27
2018-10-09T13:29:07.246Z,12.70
2018-10-09T13:31:37.464Z,13.60
2018-10-09T13:34:07.038Z,9.00
2018-10-09T13:36:36.862Z,12.27
2018-10-09T13:39:07.334Z,11.83
2018-10-09T13:41:37.332Z,9.87
2018-10-09T13:44:06.985Z,12.43
2018-10-09T13:46:38.785Z,11.73
2018-10-09T13:49:09.311Z,11.00
2018-10-09T13:51:38.880Z,12.67
2018-10-09T13:54:08.192Z,15.83
2018-10-09T13:56:38.121Z,16.07
2018-10-09T13:59:07.300Z,10.33
2018-10-09T14:01:37.611Z,11.50
2018-10-09T14:04:07.055Z,11.47
2018-10-09T14:06:36.459Z,10.70
2018-10-09T14:09:08.372Z,13.33
2018-10-09T14:11:37.857Z,12.03
2018-10-09T14:14:06.866Z,14.23
2018-10-09T14:16:36.265Z,13.07
2018-10-09T14:19:05.864Z,12.30
2018-10-09T14:21:34.928Z,11.67
2018-10-09T14:24:04.011Z,13.80
2018-10-09T14:26:35.558Z,12.83
2018-10-09T14:29:05.553Z,13.07
2018-10-09T14:31:36.188Z,10.93
2018-10-09T14:34:05.750Z,16.70
2018-10-09T14:36:35.551Z,9.97
2018-10-09T14:39:06.467Z,10.90
2018-10-09T14:41:36.459Z,12.03
2018-10-09T14:44:05.674Z,11.63
2018-10-09T14:46:35.393Z,13.17
2018-10-09T14:49:05.445Z,11.17
2018-10-09T14:51:35.722Z,11.10
2018-10-09T14:54:06.235Z,11.47
2018-10-09T14:56:35.326Z,11.13
2018-10-09T14:59:04.789Z,11.47
2018-10-09T15:01:33.865Z,11.70
2018-10-09T15:04:03.454Z,12.73
2018-10-09T15:06:34.035Z,10.77
2018-10-09T15:09:05.053Z,12.60
2018-10-09T15:11:34.180Z,16.43
2018-10-09T15:14:04.589Z,16.03
2018-10-09T15:16:34.012Z,14.90
2018-10-09T15:19:03.460Z,13.60
2018-10-09T15:21:33.873Z,15.30
2018-10-09T15:24:05.509Z,14.23
2018-10-09T15:26:34.782Z,13.13
2018-10-09T15:29:04.173Z,11.60
2018-10-09T15:31:34.335Z,12.73
2018-10-09T15:34:03.811Z,14.73
2018-10-09T15:36:33.848Z,11.23
2018-10-09T15:39:03.102Z,14.83
2018-10-09T15:41:33.880Z,13.23
2018-10-09T15:44:04.587Z,14.37
2018-10-09T15:46:35.128Z,14.57
2018-10-09T15:49:06.965Z,13.97
2018-10-09T15:51:36.418Z,16.37
2018-10-09T15:54:05.551Z,15.23
2018-10-09T15:56:34.826Z,13.73
2018-10-09T15:59:04.954Z,14.83
2018-10-09T16:01:34.172Z,13.37
2018-10-09T16:04:04.631Z,12.57
2018-10-09T16:06:34.633Z,15.53
2018-10-09T16:09:06.183Z,15.40
2018-10-09T16:11:36.761Z,14.07
2018-10-09T16:14:06.011Z,13.60
2018-10-09T16:16:37.261Z,14.10
2018-10-09T16:19:06.715Z,16.80
2018-10-09T16:21:37.100Z,15.87
2018-10-09T16:24:06.391Z,14.57
2018-10-09T16:26:36.218Z,16.00
2018-10-09T16:29:06.732Z,14.90
2018-10-09T16:31:36.682Z,17.47
2018-10-09T16:34:06.217Z,20.07
2018-10-09T16:36:36.881Z,12.93
2018-10-09T16:39:09.419Z,14.40
2018-10-09T16:41:39.252Z,13.47
2018-10-09T16:44:08.349Z,13.67
2018-10-09T16:46:37.933Z,15.37
2018-10-09T16:49:07.853Z,15.43
2018-10-09T16:51:38.354Z,13.10
2018-10-09T16:54:08.531Z,12.43
2018-10-09T16:56:39.040Z,12.83
2018-10-09T16:59:08.701Z,11.03
2018-10-09T17:01:38.347Z,12.93
2018-10-09T17:04:07.744Z,13.93
2018-10-09T17:06:36.901Z,15.00
2018-10-09T17:09:08.865Z,13.30
2018-10-09T17:11:38.831Z,13.93
2018-10-09T17:14:08.038Z,15.00
2018-10-09T17:16:37.352Z,15.90
2018-10-09T17:19:06.735Z,14.97
2018-10-09T17:21:35.836Z,13.63
2018-10-09T17:24:05.259Z,13.93
2018-10-09T17:26:34.870Z,17.77
2018-10-09T17:29:04.305Z,12.87
2018-10-09T17:31:34.177Z,14.43
2018-10-09T17:34:03.965Z,15.33
2018-10-09T17:36:33.318Z,17.47
2018-10-09T17:39:04.567Z,13.63
2018-10-09T17:41:34.760Z,13.93
2018-10-09T17:44:04.017Z,14.43
2018-10-09T17:46:33.225Z,18.87
2018-10-09T17:49:03.912Z,17.60
2018-10-09T17:51:33.060Z,12.77
2018-10-09T17:54:03.391Z,15.07
2018-10-09T17:56:32.929Z,12.83
2018-10-09T17:59:02.076Z,18.20
2018-10-09T18:01:31.583Z,18.40
2018-10-09T18:04:00.711Z,17.27
2018-10-09T18:06:31.133Z,13.47
2018-10-09T18:09:00.995Z,14.70
2018-10-09T18:11:30.545Z,17.97
2018-10-09T18:14:01.557Z,16.57
2018-10-09T18:16:30.864Z,15.77
2018-10-09T18:19:03.855Z,17.30
2018-10-09T18:21:34.281Z,15.87
2018-10-09T18:24:03.983Z,16.00
2018-10-09T18:26:33.401Z,18.10
2018-10-09T18:29:02.899Z,15.13
2018-10-09T18:31:33.541Z,16.03
2018-10-09T18:34:03.018Z,16.17
2018-10-09T18:36:33.929Z,15.77
2018-10-09T18:39:05.252Z,15.40
2018-10-09T18:41:35.212Z,19.83
2018-10-09T18:44:04.876Z,20.20
2018-10-09T18:46:34.819Z,19.00
2018-10-09T18:49:04.538Z,20.57
2018-10-09T18:51:35.846Z,21.13
2018-10-09T18:54:05.561Z,20.73
2018-10-09T18:56:36.283Z,21.63
2018-10-09T18:59:06.779Z,16.80
2018-10-09T19:01:36.670Z,16.30
2018-10-09T19:04:07.120Z,19.53
2018-10-09T19:06:37.731Z,19.77
2018-10-09T19:09:10.118Z,15.33
2018-10-09T19:11:40.075Z,19.10
2018-10-09T19:14:10.323Z,18.30
2018-10-09T19:16:40.950Z,17.37
2018-10-09T19:19:10.818Z,23.33
2018-10-09T19:21:41.396Z,17.47
2018-10-09T19:24:11.796Z,19.53
2018-10-09T19:26:42.816Z,18.93
2018-10-09T19:29:15.379Z,18.70
2018-10-09T19:31:45.297Z,21.17
2018-10-09T19:34:15.363Z,18.50
2018-10-09T19:36:45.905Z,18.93
2018-10-09T19:39:16.001Z,33.40
2018-10-09T19:41:46.757Z,22.90
2018-10-09T19:44:17.371Z,21.73
2018-10-09T19:46:48.354Z,21.33
2018-10-09T19:49:19.133Z,23.70
2018-10-09T19:51:49.484Z,21.77
2018-10-09T19:54:19.899Z,25.13
2018-10-09T19:56:50.536Z,23.10
2018-10-09T19:59:20.511Z,23.57
2018-10-09T20:01:52.126Z,22.63
2018-10-09T20:04:22.822Z,25.43
2018-10-09T20:06:52.931Z,25.43
2018-10-09T20:09:23.121Z,23.70
2018-10-09T20:11:54.540Z,24.73
2018-10-09T20:14:24.670Z,23.03
2018-10-09T20:16:55.082Z,22.73
2018-10-09T20:19:25.455Z,27.77
2018-10-09T20:21:55.926Z,22.40
2018-10-09T20:24:26.179Z,26.00
2018-10-09T20:26:56.819Z,22.87
2018-10-09T20:29:27.061Z,25.27
2018-10-09T20:31:57.480Z,26.37
2018-10-09T20:34:27.276Z,26.67
2018-10-09T20:36:57.280Z,24.10
2018-10-09T20:39:27.225Z,24.57
2018-10-09T20:41:57.555Z,22.17
2018-10-09T20:44:27.995Z,26.77
2018-10-09T20:46:58.493Z,24.40
2018-10-09T20:49:29.050Z,24.77
2018-10-09T20:51:59.802Z,25.23
2018-10-09T20:54:30.108Z,27.17
2018-10-09T20:57:00.894Z,24.30
2018-10-09T20:59:30.642Z,25.77
2018-10-09T21:02:01.766Z,27.30
2018-10-09T21:04:33.266Z,29.07
2018-10-09T21:07:03.478Z,23.77
2018-10-09T21:09:33.543Z,29.17
2018-10-09T21:12:04.027Z,28.43
2018-10-09T21:14:34.285Z,29.50
2018-10-09T21:17:05.219Z,25.43
2018-10-09T21:19:35.202Z,28.57
2018-10-09T21:22:04.669Z,28.87
2018-10-09T21:24:33.853Z,31.00
2018-10-09T21:27:04.805Z,24.53
2018-10-09T21:29:35.819Z,23.03
2018-10-09T21:32:05.013Z,27.03
2018-10-09T21:34:34.960Z,25.77
2018-10-09T21:37:04.831Z,28.90
2018-10-09T21:39:35.745Z,27.23
2018-10-09T21:42:05.712Z,27.23
2018-10-09T21:44:36.491Z,27.63
2018-10-09T21:47:06.635Z,24.67
2018-10-09T21:49:35.934Z,26.03
2018-10-09T21:52:06.053Z,28.70
2018-10-09T21:54:38.283Z,27.43
2018-10-09T21:57:08.351Z,26.77
2018-10-09T21:59:37.679Z,26.37
2018-10-09T22:02:07.095Z,26.83
2018-10-09T22:04:37.597Z,27.33
2018-10-09T22:07:06.772Z,30.30
2018-10-09T22:09:35.948Z,27.07
2018-10-09T22:12:06.694Z,27.83
2018-10-09T22:14:37.901Z,28.17
2018-10-09T22:17:07.819Z,26.60
2018-10-09T22:19:37.013Z,26.37
2018-10-09T22:22:08.489Z,29.43
2018-10-09T22:24:37.647Z,29.67
2018-10-09T22:27:07.096Z,31.80
2018-10-09T22:29:37.476Z,27.83
2018-10-09T22:32:06.822Z,26.57
2018-10-09T22:34:36.173Z,27.13
2018-10-09T22:37:06.552Z,25.57
2018-10-09T22:39:36.226Z,26.97
2018-10-09T22:42:06.186Z,25.43
2018-10-09T22:44:36.122Z,30.30
2018-10-09T22:47:05.885Z,28.97
2018-10-09T22:49:39.992Z,27.80
2018-10-09T22:52:10.643Z,24.87
2018-10-09T22:54:41.228Z,26.37
2018-10-09T22:57:11.268Z,27.07
2018-10-09T22:59:40.638Z,25.57
2018-10-09T23:02:10.819Z,26.77
2018-10-09T23:04:40.853Z,25.87
2018-10-09T23:07:10.598Z,27.60
2018-10-09T23:09:40.607Z,25.53
2018-10-09T23:12:16.262Z,25.73
2018-10-09T23:14:45.497Z,24.10
2018-10-09T23:17:14.978Z,26.33
2018-10-09T23:19:44.217Z,25.90
2018-10-09T23:22:13.801Z,25.77
2018-10-09T23:24:43.739Z,28.50
2018-10-09T23:27:13.614Z,25.33
2018-10-09T23:29:43.228Z,26.90
2018-10-09T23:32:13.163Z,27.37
2018-10-09T23:34:42.570Z,22.93
2018-10-09T23:37:11.659Z,29.60
2018-10-09T23:39:40.636Z,28.53
2018-10-09T23:42:09.664Z,29.33
2018-10-09T23:44:38.962Z,26.73
2018-10-09T23:47:08.274Z,25.57
2018-10-09T23:49:37.583Z,25.40
2018-10-09T23:52:06.612Z,28.77
2018-10-09T23:54:36.317Z,26.17
2018-10-09T23:57:05.535Z,27.17
2018-10-09T23:59:35.007Z,25.30
